Aviation Digital Data Service (ADDS)

Output produced by METARs form (1755 UTC 20 May 2022)
found at http://aviationweather.gov/metar/data/
 
METAR text: KDIJ 201656Z AUTO 35017KT 10SM FEW055 OVC075 04/M08 A2997 RMK AO2 SLP164 T00391078
Conditions at: KDIJ (DRIGGS REED MEM , ID, US) observed 1656 UTC 20 May 2022
Temperature: 3.9°C (39°F)
Dewpoint: -7.8°C (18°F) [RH = 42%]
Pressure (altimeter): 29.97 inches Hg (1015.0 mb)
[Sea-level pressure: 1016.4 mb]
Winds: from the N (350 degrees) at 20 MPH (17 knots; 8.7 m/s)
Visibility: 10 or more miles (16+ km)
Ceiling: 7500 feet AGL
Clouds: few clouds at 5500 feet AGL
overcast cloud deck at 7500 feet AGL
Weather: automated observation with no human augmentation;
there may or may not be significant weather present at this time

METAR text: KDIJ 201556Z AUTO 03006KT 10SM BKN045 BKN055 OVC075 03/M06 A2997 RMK AO2 SLP165 T00281056
Conditions at: KDIJ (DRIGGS REED MEM , ID, US) observed 1556 UTC 20 May 2022
Temperature: 2.8°C (37°F)
Dewpoint: -5.6°C (22°F) [RH = 54%]
Pressure (altimeter): 29.97 inches Hg (1015.0 mb)
[Sea-level pressure: 1016.5 mb]
Winds: from the NNE (30 degrees) at 7 MPH (6 knots; 3.1 m/s)
Visibility: 10 or more miles (16+ km)
Ceiling: 4500 feet AGL
Clouds: broken clouds at 4500 feet AGL
broken clouds at 5500 feet AGL
overcast cloud deck at 7500 feet AGL
Weather: automated observation with no human augmentation;
there may or may not be significant weather present at this time

Forecast for: KDIJ (DRIGGS REED MEM , ID, US)
Text: KDIJ 201721Z 2018/2118 34011KT P6SM VCSH BKN070
Forecast period: 1800 UTC 20 May 2022 to 0100 UTC 21 May 2022
Forecast type: FROM: standard forecast or significant change
Winds: from the NNW (340 degrees) at 13 MPH (11 knots; 5.7 m/s)
Visibility: 6 or more miles (10+ km)
Ceiling: 7000 feet AGL
Clouds: broken clouds at 7000 feet AGL
Weather: VCSH  (showers in vicinity)
Text: FM210100 VRB06KT P6SM FEW040 SCT200 AMD LTD TO CLD VIS AND WIND
Forecast period: 0100 to 1800 UTC 21 May 2022
Forecast type: FROM: standard forecast or significant change
Winds: variable direction winds at 7 MPH (6 knots; 3.1 m/s)
Visibility: 6 or more miles (10+ km)
Ceiling: at least 12,000 feet AGL
Clouds: few clouds at 4000 feet AGL
scattered clouds at 20000 feet AGL
Weather: no significant weather forecast for this period